Time;durP1;ratioP1;P1;durP2;ratioP2;P2;SDS_P1;SDS_P2;PMS_P1;PMS_P2;Temp;Humidity;BMP_temperature;BMP_pressure;BME280_temperature;BME280_humidity;BME280_pressure;Samples;Min_cycle;Max_cycle;Signal;HPM_P1;HPM_P2
2023/07/06 00:04:23;;;;;;;2.80;2.28;;;;;;;19.02;42.05;99820.94;10509503;28;20431;-68
2023/07/06 00:09:24;;;;;;;2.07;1.90;;;;;;;19.35;41.21;99827.53;10518102;28;20230;-70
2023/07/06 00:14:26;;;;;;;2.53;2.20;;;;;;;21.31;39.50;99856.69;10521931;28;20222;-67
2023/07/06 00:19:28;;;;;;;2.33;2.08;;;;;;;19.89;39.61;99936.63;10526041;28;20735;-68
2023/07/06 00:24:30;;;;;;;3.55;2.30;;;;;;;20.05;40.73;99842.66;10512778;28;20329;-69
2023/07/06 00:29:38;;;;;;;2.53;2.10;;;;;;;20.81;40.11;99830.50;10527588;28;20291;-69
2023/07/06 00:34:40;;;;;;;2.35;2.15;;;;;;;20.72;39.75;99880.94;10515867;28;20238;-69
2023/07/06 00:39:43;;;;;;;3.20;2.10;;;;;;;20.52;39.90;99876.84;10525501;28;20284;-68
2023/07/06 00:44:57;;;;;;;3.03;2.08;;;;;;;18.85;42.45;99858.78;10519448;28;20223;-69
2023/07/06 00:50:07;;;;;;;2.30;2.00;;;;;;;19.78;40.76;99857.94;10525222;28;20230;-69
2023/07/06 00:55:12;;;;;;;2.77;2.27;;;;;;;20.19;39.50;99843.16;10512732;28;20326;-69
2023/07/06 01:00:20;;;;;;;2.50;2.00;;;;;;;20.26;39.93;99892.75;10517951;28;20287;-69
2023/07/06 01:05:25;;;;;;;2.67;2.13;;;;;;;20.40;39.76;99859.81;10518123;28;20291;-69
2023/07/06 01:10:27;;;;;;;3.10;2.13;;;;;;;19.83;40.47;99866.19;10526905;28;20229;-69
2023/07/06 01:15:31;;;;;;;2.78;2.17;;;;;;;20.38;39.58;99851.06;10517555;28;20694;-69
2023/07/06 01:20:46;;;;;;;3.80;2.00;;;;;;;19.90;40.17;99885.84;10519944;28;20237;-68
2023/07/06 01:26:10;;;;;;;2.20;1.90;;;;;;;20.53;39.91;99821.41;10515260;28;20641;-69
2023/07/06 01:31:31;;;;;;;2.22;2.05;;;;;;;19.82;39.91;99916.09;10519466;28;20701;-68
2023/07/06 01:37:10;;;;;;;2.27;1.93;;;;;;;20.38;39.00;99892.66;10513068;28;20290;-69
2023/07/06 01:42:14;;;;;;;3.03;2.08;;;;;;;20.11;39.51;99895.19;10521289;28;20655;-69
2023/07/06 01:47:18;;;;;;;2.30;2.07;;;;;;;18.37;41.19;99920.28;10504498;28;20258;-69
2023/07/06 01:52:57;;;;;;;2.00;1.87;;;;;;;17.45;42.61;99896.94;10521665;28;20337;-69
2023/07/06 01:58:12;;;;;;;3.03;2.00;;;;;;;18.68;41.20;99807.19;10515301;28;20314;-69
2023/07/06 02:03:15;;;;;;;2.37;1.93;;;;;;;18.47;41.54;99841.09;10511157;28;20330;-68
2023/07/06 02:08:18;;;;;;;4.40;2.23;;;;;;;17.20;43.05;99880.00;10515780;28;20235;-68
2023/07/06 02:13:20;;;;;;;2.53;2.17;;;;;;;18.12;41.84;99866.28;10523472;28;20325;-68
2023/07/06 02:18:22;;;;;;;3.90;2.10;;;;;;;18.61;41.51;99799.19;10513524;28;20253;-69
2023/07/06 02:23:24;;;;;;;6.10;2.30;;;;;;;19.71;40.83;99810.03;10514158;28;20238;-68
2023/07/06 02:28:25;;;;;;;3.40;2.47;;;;;;;19.67;40.85;99868.63;10508577;28;20665;-69
2023/07/06 02:33:30;;;;;;;3.77;2.10;;;;;;;18.23;42.33;99905.25;10517576;28;20234;-69
2023/07/06 02:38:34;;;;;;;4.90;2.27;;;;;;;18.67;41.82;99877.88;10509715;28;20256;-69
2023/07/06 02:43:36;;;;;;;4.83;2.00;;;;;;;19.42;41.86;99816.53;10516811;28;20236;-68
2023/07/06 02:48:39;;;;;;;2.83;2.10;;;;;;;19.58;41.44;99841.03;10514604;28;20344;-68
2023/07/06 02:53:41;;;;;;;3.20;2.23;;;;;;;18.68;43.04;99887.66;10518546;28;20234;-69
2023/07/06 02:58:43;;;;;;;2.63;2.23;;;;;;;19.73;42.00;99809.81;10520261;28;20257;-68
2023/07/06 03:03:49;;;;;;;2.30;2.10;;;;;;;18.93;43.23;99828.63;10516906;28;20238;-69
2023/07/06 03:08:54;;;;;;;2.40;2.20;;;;;;;19.66;42.77;99771.16;10516637;28;20238;-69
2023/07/06 03:13:56;;;;;;;3.50;2.30;;;;;;;19.41;42.65;99842.84;10511368;28;20230;-69
2023/07/06 03:18:58;;;;;;;2.80;2.40;;;;;;;18.82;43.21;99870.91;10517340;28;20235;-68
2023/07/06 03:24:00;;;;;;;3.60;2.10;;;;;;;19.21;42.57;99832.41;10517238;28;20317;-69
2023/07/06 03:29:04;;;;;;;3.53;2.20;;;;;;;19.40;42.57;99814.09;10517865;28;20223;-68
2023/07/06 03:34:07;;;;;;;2.93;2.63;;;;;;;17.15;46.27;99861.75;10515894;28;20403;-68
2023/07/06 03:39:11;;;;;;;5.63;3.00;;;;;;;18.94;43.64;99797.72;10511135;28;20222;-71
2023/07/06 03:44:13;;;;;;;2.33;2.13;;;;;;;19.24;42.85;99834.66;10481560;22;20323;-34
2023/07/06 03:49:15;;;;;;;2.67;2.27;;;;;;;19.15;43.30;99833.41;10390310;28;20328;-32
2023/07/06 03:54:16;;;;;;;2.40;2.20;;;;;;;18.25;43.89;99890.44;10401482;28;21006;-33
2023/07/06 03:59:18;;;;;;;2.50;2.00;;;;;;;18.94;43.49;99834.84;10395259;28;20708;-35
2023/07/06 04:04:26;;;;;;;2.57;2.37;;;;;;;19.18;43.11;99830.19;10394754;28;20260;-33
2023/07/06 04:09:28;;;;;;;2.97;2.67;;;;;;;18.61;44.14;99868.81;10393378;28;20326;-34
2023/07/06 04:14:30;;;;;;;3.10;2.50;;;;;;;18.74;43.88;99857.72;10395637;28;20267;-34
2023/07/06 04:19:33;;;;;;;4.47;2.50;;;;;;;18.38;43.92;99880.47;10383692;28;20255;-34
2023/07/06 04:24:36;;;;;;;3.77;2.43;;;;;;;19.18;43.05;99817.47;10392598;28;20244;-33
2023/07/06 04:29:38;;;;;;;2.47;2.27;;;;;;;19.05;43.02;99881.97;10387119;28;20232;-33
2023/07/06 04:34:40;;;;;;;2.90;2.60;;;;;;;19.36;43.11;99859.84;10391500;28;20268;-33
2023/07/06 04:39:42;;;;;;;4.90;2.73;;;;;;;18.67;43.37;99910.41;10389823;28;20229;-34
2023/07/06 04:44:44;;;;;;;3.53;2.63;;;;;;;17.08;44.97;99932.13;10406874;28;20283;-34
2023/07/06 04:49:47;;;;;;;3.50;2.60;;;;;;;19.01;42.46;99855.38;10431194;28;20240;-34
2023/07/06 04:54:50;;;;;;;4.27;2.93;;;;;;;19.29;42.03;99889.00;10426503;28;20716;-34
2023/07/06 05:05:22;;;;;;;3.13;2.77;;;;;;;15.56;47.82;99778.41;10353203;27;20824;-67
2023/07/06 05:10:25;;;;;;;3.43;2.57;;;;;;;17.32;44.92;99856.53;10376238;28;20286;-66
2023/07/06 05:15:27;;;;;;;4.17;2.63;;;;;;;17.20;44.87;99915.97;10384873;28;20228;-67
2023/07/06 05:20:31;;;;;;;3.30;2.47;;;;;;;17.65;45.18;99880.50;10379013;28;20740;-65
2023/07/06 05:25:34;;;;;;;4.67;2.93;;;;;;;17.50;44.98;99937.66;10365930;28;20736;-67
2023/07/06 05:30:38;;;;;;;2.37;2.17;;;;;;;18.42;44.54;99887.91;10345636;28;20237;-65
2023/07/06 05:35:42;;;;;;;3.20;2.70;;;;;;;16.34;48.01;99968.91;10375917;28;20248;-68
2023/07/06 05:40:43;;;;;;;3.80;2.90;;;;;;;17.51;46.67;99869.00;10367384;28;20244;-68
2023/07/06 05:45:47;;;;;;;2.80;2.43;;;;;;;16.76;46.81;99964.59;10383887;28;20603;-65
2023/07/06 05:50:49;;;;;;;3.20;2.40;;;;;;;17.64;46.73;99867.19;10381981;28;20233;-65
2023/07/06 05:55:50;;;;;;;5.03;2.70;;;;;;;17.35;47.18;99862.31;10379891;28;20257;-67
2023/07/06 06:00:53;;;;;;;3.90;2.67;;;;;;;17.15;48.00;99945.56;10379481;28;20237;-67
2023/07/06 06:05:55;;;;;;;2.97;2.40;;;;;;;17.23;48.09;99869.56;10344433;28;20788;-68
2023/07/06 06:10:59;;;;;;;3.00;2.60;;;;;;;17.51;47.15;99884.38;10340981;28;20202;-68
2023/07/06 06:16:03;;;;;;;2.47;2.00;;;;;;;17.22;47.88;99930.09;10317741;28;20230;-68
2023/07/06 06:21:04;;;;;;;2.87;2.53;;;;;;;17.61;47.37;99910.91;10321283;28;20309;-68
2023/07/06 06:26:06;;;;;;;2.67;2.43;;;;;;;16.35;48.43;100000.28;10315860;28;20246;-68
2023/07/06 06:31:08;;;;;;;2.97;2.63;;;;;;;18.11;45.70;99975.63;10347523;28;20218;-68
2023/07/06 06:36:11;;;;;;;2.67;2.40;;;;;;;18.14;46.14;99994.13;10359784;28;20230;-66
2023/07/06 06:41:13;;;;;;;4.37;2.07;;;;;;;18.07;45.27;100005.06;10356642;28;20245;-66
2023/07/06 06:46:15;;;;;;;3.20;2.53;;;;;;;19.11;44.33;99992.22;10352803;28;20299;-68
2023/07/06 06:51:17;;;;;;;3.93;2.73;;;;;;;17.91;44.05;100113.97;10353517;28;20239;-67
2023/07/06 06:56:19;;;;;;;3.45;2.40;;;;;;;18.91;44.18;100058.47;10350294;28;20287;-68
2023/07/06 07:01:21;;;;;;;2.47;2.20;;;;;;;19.29;44.18;100026.53;10346381;28;20296;-68
2023/07/06 07:06:23;;;;;;;4.32;2.30;;;;;;;19.39;43.56;100024.06;10354341;28;20260;-67
2023/07/06 07:11:25;;;;;;;2.13;1.90;;;;;;;19.04;43.55;100087.25;10351076;28;20601;-67
2023/07/06 07:16:27;;;;;;;4.38;2.30;;;;;;;19.21;42.97;100016.88;10352817;28;20236;-67
2023/07/06 07:21:29;;;;;;;3.63;2.35;;;;;;;19.36;43.44;100021.81;10353029;28;20604;-67
2023/07/06 07:26:31;;;;;;;3.97;2.30;;;;;;;19.45;43.12;100082.81;10353859;28;20241;-67
2023/07/06 07:31:33;;;;;;;2.70;2.25;;;;;;;19.32;43.04;100077.63;10356658;28;20245;-67
2023/07/06 07:36:34;;;;;;;2.30;2.08;;;;;;;19.83;42.55;100027.19;10356361;28;20320;-67
2023/07/06 07:41:39;;;;;;;2.88;2.03;;;;;;;19.14;42.25;100057.66;10348045;28;20245;-66
2023/07/06 07:46:41;;;;;;;3.00;2.10;;;;;;;20.47;41.10;100002.59;10350909;28;20233;-67
2023/07/06 07:51:42;;;;;;;3.28;2.10;;;;;;;20.80;40.01;100057.28;10352215;28;20260;-68
2023/07/06 07:56:44;;;;;;;2.22;1.80;;;;;;;19.42;40.98;100094.13;10342759;28;20669;-67
2023/07/06 08:01:47;;;;;;;4.57;2.63;;;;;;;19.47;41.16;100063.56;10344758;28;20260;-67
2023/07/06 08:06:49;;;;;;;1.77;1.67;;;;;;;19.01;40.96;100126.53;10347412;28;20244;-67
2023/07/06 08:11:51;;;;;;;3.17;2.22;;;;;;;20.39;39.70;100075.56;10345723;28;20225;-68
2023/07/06 08:16:53;;;;;;;2.35;2.10;;;;;;;20.74;38.94;100031.06;10349612;28;20232;-67
2023/07/06 08:21:55;;;;;;;4.45;1.90;;;;;;;21.11;39.00;100031.41;10346291;28;20237;-67
2023/07/06 08:27:10;;;;;;;2.50;2.05;;;;;;;19.60;39.90;100104.06;10347940;28;20240;-67
2023/07/06 08:32:18;;;;;;;1.85;1.70;;;;;;;20.68;39.88;100051.88;10353269;28;20336;-68
2023/07/06 08:37:21;;;;;;;6.30;1.98;;;;;;;19.46;39.70;100105.34;10352095;28;20230;-68
2023/07/06 08:42:23;;;;;;;3.55;2.10;;;;;;;20.49;38.81;100120.03;10353531;28;20675;-67
2023/07/06 08:47:25;;;;;;;3.08;1.90;;;;;;;20.60;38.50;100093.91;10344943;28;20233;-68
2023/07/06 08:52:28;;;;;;;2.17;1.73;;;;;;;21.20;37.91;100031.78;10347540;28;21832;-68
2023/07/06 08:57:30;;;;;;;2.85;2.08;;;;;;;19.89;38.66;100115.00;10350550;28;20232;-68
2023/07/06 09:02:34;;;;;;;6.15;2.55;;;;;;;21.01;37.53;100105.50;10331673;28;20721;-67
2023/07/06 09:07:39;;;;;;;3.47;1.83;;;;;;;21.10;37.79;100084.16;10311152;28;20242;-67
2023/07/06 09:12:41;;;;;;;2.95;1.85;;;;;;;21.03;37.97;100034.53;10320241;28;20799;-66
2023/07/06 09:17:47;;;;;;;1.70;1.60;;;;;;;21.42;37.18;100043.59;10321597;28;20312;-68
2023/07/06 09:22:49;;;;;;;2.55;1.92;;;;;;;21.36;37.23;100030.97;10312760;28;20919;-67
2023/07/06 09:27:55;;;;;;;2.33;1.88;;;;;;;22.38;36.94;99997.03;10315446;28;20316;-67
2023/07/06 09:33:05;;;;;;;4.40;1.60;;;;;;;22.63;35.57;100010.91;10339512;28;20233;-68
2023/07/06 09:38:12;;;;;;;1.70;1.60;;;;;;;20.08;37.10;100086.63;10336985;28;20292;-67
2023/07/06 09:43:21;;;;;;;9.80;3.67;;;;;;;22.92;35.71;100015.22;10340469;28;20835;-68
2023/07/06 09:48:37;;;;;;;3.33;2.25;;;;;;;21.97;36.83;100006.44;10336314;28;20785;-67
2023/07/06 09:53:50;;;;;;;2.75;1.90;;;;;;;21.45;35.32;100085.00;10345185;28;20245;-67
2023/07/06 09:58:53;;;;;;;2.47;1.80;;;;;;;21.05;36.28;100068.59;10354619;28;20229;-68
2023/07/06 10:04:09;;;;;;;2.90;1.55;;;;;;;22.98;35.54;100014.19;10357588;28;20236;-68
2023/07/06 10:09:31;;;;;;;2.58;1.90;;;;;;;21.26;34.80;100104.28;10354711;28;20224;-67
2023/07/06 10:14:41;;;;;;;4.15;2.00;;;;;;;20.89;35.12;100087.63;10358304;28;20861;-68
2023/07/06 10:19:57;;;;;;;2.00;1.67;;;;;;;21.27;35.07;100077.88;10356123;28;20229;-68
2023/07/06 10:25:22;;;;;;;2.67;2.10;;;;;;;22.53;33.91;100017.09;10349364;28;20229;-67
2023/07/06 10:30:35;;;;;;;2.42;1.95;;;;;;;22.28;34.61;100063.16;10356387;28;20265;-68
2023/07/06 10:35:46;;;;;;;3.20;2.22;;;;;;;22.60;34.25;100046.06;10353143;28;20233;-67
2023/07/06 10:41:12;;;;;;;3.17;1.90;;;;;;;22.58;33.78;100026.41;10352350;28;20233;-68
2023/07/06 10:46:27;;;;;;;3.25;1.98;;;;;;;21.20;33.75;100061.72;10352091;28;20248;-67
2023/07/06 10:51:29;;;;;;;2.67;1.98;;;;;;;23.42;33.52;100008.47;10351504;28;20245;-68
2023/07/06 10:56:37;;;;;;;5.07;2.40;;;;;;;22.42;32.92;100079.94;10354070;28;20666;-67
2023/07/06 11:06:39;;;;;;;4.10;1.92;;;;;;;22.28;34.45;99989.56;10480070;27;20839;-66
2023/07/06 11:11:48;;;;;;;4.07;2.00;;;;;;;21.53;34.81;100047.25;10442102;28;20313;-66
2023/07/06 11:16:57;;;;;;;2.95;1.65;;;;;;;21.27;33.96;99996.25;10439861;28;20248;-65
2023/07/06 11:22:06;;;;;;;2.65;1.95;;;;;;;20.82;34.50;100030.69;10449874;28;20339;-65
2023/07/06 11:27:36;;;;;;;3.20;2.05;;;;;;;21.19;34.74;99992.06;10447144;28;20232;-66
2023/07/06 11:32:56;;;;;;;3.40;1.85;;;;;;;21.13;34.67;99955.78;10439689;28;20236;-65
2023/07/06 11:38:50;;;;;;;4.95;2.45;;;;;;;22.58;32.98;99958.25;10441078;28;20274;-66
2023/07/06 11:44:05;;;;;;;3.35;1.77;;;;;;;22.66;33.24;100023.22;10408518;28;20618;-66
2023/07/06 11:49:26;;;;;;;2.75;2.10;;;;;;;23.06;33.34;100019.16;10434997;28;20379;-66
2023/07/06 11:54:43;;;;;;;2.42;1.90;;;;;;;22.93;32.06;99990.41;10435686;28;20945;-66
2023/07/06 11:59:52;;;;;;;3.10;1.90;;;;;;;23.28;32.57;100012.75;10442707;28;20327;-66
2023/07/06 12:04:54;;;;;;;2.85;1.98;;;;;;;23.23;32.48;100027.22;10435751;28;20730;-66
2023/07/06 12:10:04;;;;;;;4.35;2.00;;;;;;;22.72;32.56;99981.25;10438894;28;20784;-66
2023/07/06 12:15:11;;;;;;;4.43;2.20;;;;;;;23.99;31.58;99955.69;10422960;28;20271;-66
2023/07/06 12:20:15;;;;;;;2.78;1.90;;;;;;;23.21;31.80;100015.72;10414962;28;20331;-66
2023/07/06 12:25:19;;;;;;;3.90;2.20;;;;;;;23.12;32.60;100014.56;10407689;28;20230;-66
2023/07/06 12:30:21;;;;;;;3.05;2.03;;;;;;;22.83;32.24;99971.25;10409337;28;20283;-66
2023/07/06 12:35:24;;;;;;;4.95;2.15;;;;;;;23.35;31.28;99980.59;10411073;28;20251;-66
2023/07/06 12:40:31;;;;;;;2.13;1.92;;;;;;;22.20;32.46;100009.09;10407736;28;20319;-66
2023/07/06 12:45:32;;;;;;;2.47;1.48;;;;;;;22.80;33.11;99961.66;10417999;28;20271;-66
2023/07/06 12:50:41;;;;;;;3.45;2.03;;;;;;;23.30;32.27;99932.25;10405583;28;20954;-67
2023/07/06 12:55:45;;;;;;;2.38;2.00;;;;;;;22.90;31.51;99939.09;10411207;28;20232;-66
2023/07/06 13:00:48;;;;;;;3.58;1.90;;;;;;;23.50;31.20;99926.03;10412111;28;20228;-66
2023/07/06 13:05:54;;;;;;;3.50;2.08;;;;;;;22.86;31.26;99903.34;10412195;28;20280;-66
2023/07/06 13:11:03;;;;;;;2.30;1.80;;;;;;;24.07;32.67;99896.94;10361024;28;20229;-66
2023/07/06 13:16:10;;;;;;;3.47;1.95;;;;;;;23.76;33.38;99937.06;10410337;28;20228;-66
2023/07/06 13:21:21;;;;;;;2.30;2.10;;;;;;;23.54;32.75;99923.59;10400775;28;20240;-66
2023/07/06 13:26:27;;;;;;;2.92;1.73;;;;;;;23.55;32.57;99906.94;10403525;28;20239;-66
2023/07/06 13:31:29;;;;;;;2.80;1.70;;;;;;;23.00;32.55;99955.53;10406202;28;20232;-66
2023/07/06 13:36:52;;;;;;;3.05;2.10;;;;;;;23.17;33.17;99944.47;10411706;28;20243;-66
2023/07/06 13:41:54;;;;;;;2.50;1.95;;;;;;;22.76;33.62;99929.72;10414542;28;20233;-67
2023/07/06 13:46:56;;;;;;;4.15;2.15;;;;;;;23.23;33.29;99915.28;10411983;28;20319;-67
2023/07/06 13:51:57;;;;;;;1.90;1.67;;;;;;;23.85;32.31;99897.19;10413897;28;20236;-66
2023/07/06 13:56:59;;;;;;;3.53;2.20;;;;;;;22.48;32.81;99931.69;10407009;28;20375;-66
2023/07/06 14:02:02;;;;;;;4.22;2.20;;;;;;;24.73;31.71;99854.25;10410105;28;20244;-66
2023/07/06 14:07:04;;;;;;;4.10;2.10;;;;;;;24.43;32.11;99874.25;10411481;28;20876;-64
2023/07/06 14:12:07;;;;;;;4.38;2.42;;;;;;;24.14;31.00;99930.28;10406042;28;20599;-65
2023/07/06 14:17:09;;;;;;;2.17;1.80;;;;;;;24.28;31.66;99884.13;10405890;28;20236;-66
2023/07/06 14:22:10;;;;;;;2.75;1.80;;;;;;;23.57;30.95;99902.03;10399774;28;20303;-64
2023/07/06 14:27:12;;;;;;;3.00;1.88;;;;;;;24.33;31.19;99886.84;10409257;28;20335;-65
2023/07/06 14:32:15;;;;;;;3.20;1.80;;;;;;;23.42;32.01;99867.31;10408681;28;20247;-64
2023/07/06 14:37:17;;;;;;;2.38;1.83;;;;;;;22.93;31.61;99897.66;10400644;28;20240;-65
2023/07/06 14:42:19;;;;;;;4.95;2.83;;;;;;;23.15;32.11;99897.50;10409857;28;20229;-65
2023/07/06 14:47:20;;;;;;;2.47;1.70;;;;;;;23.36;31.70;99889.41;10409826;28;20234;-65
2023/07/06 14:52:22;;;;;;;2.58;1.83;;;;;;;24.14;30.76;99855.66;10407183;28;20585;-65
2023/07/06 14:57:24;;;;;;;3.05;1.83;;;;;;;24.62;31.26;99853.44;10407029;28;20244;-65
2023/07/06 15:02:27;;;;;;;3.30;1.58;;;;;;;24.68;30.30;99901.63;10408382;28;20289;-64
2023/07/06 15:07:29;;;;;;;2.15;1.60;;;;;;;24.46;31.66;99866.34;10404189;28;20332;-65
2023/07/06 15:12:31;;;;;;;2.25;2.00;;;;;;;24.99;31.14;99849.53;10408090;28;20236;-66
2023/07/06 15:17:33;;;;;;;2.70;1.80;;;;;;;24.27;30.78;99911.72;10406679;28;20382;-66
2023/07/06 15:22:35;;;;;;;3.17;2.08;;;;;;;24.51;30.70;99884.63;10407049;28;20289;-67
2023/07/06 15:27:36;;;;;;;3.25;1.80;;;;;;;25.10;30.48;99878.50;10409362;28;20239;-66
2023/07/06 15:32:38;;;;;;;2.35;1.83;;;;;;;24.92;31.82;99860.75;10403137;28;20264;-67
2023/07/06 15:37:40;;;;;;;2.78;2.20;;;;;;;25.73;29.95;99860.66;10400488;28;20718;-66
2023/07/06 15:42:42;;;;;;;3.63;2.33;;;;;;;25.44;30.23;99896.16;10412180;28;20255;-65
2023/07/06 15:47:43;;;;;;;2.80;1.80;;;;;;;24.87;29.67;99904.56;10409646;28;20326;-65
2023/07/06 15:53:04;;;;;;;2.92;2.22;;;;;;;25.61;29.30;99882.09;10418786;28;20231;-66
2023/07/06 15:58:05;;;;;;;3.38;1.77;;;;;;;25.39;29.96;99887.94;10402620;28;20236;-66
2023/07/06 16:03:07;;;;;;;2.47;1.80;;;;;;;24.15;30.27;99876.47;10418418;28;20247;-65
2023/07/06 16:08:10;;;;;;;3.30;1.90;;;;;;;24.40;29.18;99866.63;10418307;28;20256;-65
2023/07/06 16:13:12;;;;;;;3.03;1.90;;;;;;;25.47;29.34;99857.22;10420202;28;20251;-66
2023/07/06 16:18:18;;;;;;;2.95;1.70;;;;;;;25.83;29.07;99871.56;10430451;28;20231;-66
2023/07/06 16:23:19;;;;;;;3.05;2.10;;;;;;;24.88;30.05;99889.81;10420001;28;20239;-66
2023/07/06 16:28:21;;;;;;;2.78;1.95;;;;;;;24.71;30.73;99851.81;10415756;28;20233;-66
2023/07/06 16:33:24;;;;;;;4.55;2.00;;;;;;;25.46;29.60;99850.13;10407953;28;20287;-66
2023/07/06 16:38:26;;;;;;;2.17;1.98;;;;;;;25.74;29.90;99873.25;10408306;28;20312;-66
2023/07/06 16:43:28;;;;;;;2.33;2.10;;;;;;;24.87;29.57;99877.19;10421530;28;20228;-66
2023/07/06 16:48:32;;;;;;;1.88;1.63;;;;;;;24.80;29.20;99832.06;10415869;28;20340;-65
2023/07/06 16:53:35;;;;;;;2.42;1.98;;;;;;;24.61;29.04;99889.28;10411869;28;20232;-66
2023/07/06 16:58:37;;;;;;;2.25;2.05;;;;;;;24.10;29.76;99893.66;10404321;28;20233;-66
2023/07/06 17:03:39;;;;;;;4.07;2.10;;;;;;;26.21;29.08;99843.53;10409568;28;20352;-65
2023/07/06 17:08:41;;;;;;;2.20;1.80;;;;;;;25.47;29.39;99851.75;10415632;28;20256;-65
2023/07/06 17:13:43;;;;;;;3.17;1.80;;;;;;;24.98;28.74;99886.19;10412764;28;20240;-65
2023/07/06 17:18:45;;;;;;;3.28;1.67;;;;;;;26.72;29.22;99869.66;10419009;28;20244;-66
2023/07/06 17:23:47;;;;;;;1.95;1.73;;;;;;;26.08;28.17;99883.44;10408732;28;20224;-63
2023/07/06 17:28:49;;;;;;;2.35;1.75;;;;;;;25.81;28.97;99914.03;10421134;28;20243;-63
2023/07/06 17:33:51;;;;;;;1.70;1.60;;;;;;;25.33;28.51;99911.81;10407988;28;20569;-63
2023/07/06 17:38:52;;;;;;;1.95;1.65;;;;;;;25.82;28.33;99902.78;10409065;28;20653;-64
2023/07/06 17:43:54;;;;;;;2.78;1.92;;;;;;;26.94;28.66;99872.75;10416859;28;20772;-66
2023/07/06 17:48:56;;;;;;;2.10;1.77;;;;;;;25.86;29.13;99911.28;10409532;28;20229;-67
2023/07/06 17:53:58;;;;;;;4.40;1.70;;;;;;;27.23;29.43;99869.13;10406725;28;20271;-65
2023/07/06 17:58:59;;;;;;;4.97;1.85;;;;;;;25.11;29.36;99912.16;10410390;28;20243;-66
2023/07/06 18:04:01;;;;;;;3.10;2.17;;;;;;;25.60;28.99;99883.19;10405420;28;20298;-67
2023/07/06 18:09:03;;;;;;;3.42;1.50;;;;;;;25.30;30.18;99904.16;10406599;28;20286;-66
2023/07/06 18:14:05;;;;;;;2.03;1.77;;;;;;;25.93;30.33;99862.44;10391863;28;20232;-66
2023/07/06 18:19:07;;;;;;;2.83;1.70;;;;;;;25.77;30.60;99872.69;10399963;28;20661;-67
2023/07/06 18:24:09;;;;;;;3.67;1.75;;;;;;;25.87;30.40;99874.53;10406398;28;20237;-66
2023/07/06 18:29:11;;;;;;;2.95;1.80;;;;;;;25.92;29.68;99893.69;10405489;28;20229;-65
2023/07/06 18:34:13;;;;;;;2.75;2.00;;;;;;;26.28;31.25;99862.44;10400977;28;20224;-67
2023/07/06 18:39:14;;;;;;;3.50;1.85;;;;;;;26.18;31.69;99864.16;10412307;28;20305;-66
2023/07/06 18:44:17;;;;;;;2.65;1.63;;;;;;;25.30;31.67;99860.34;10401528;28;20367;-65
2023/07/06 18:49:19;;;;;;;2.15;1.75;;;;;;;25.77;31.23;99872.69;10401719;28;20298;-66
2023/07/06 18:54:20;;;;;;;2.83;1.83;;;;;;;25.28;32.02;99896.22;10412150;28;20660;-64
2023/07/06 18:59:22;;;;;;;2.17;1.95;;;;;;;24.76;32.06;99886.53;10406589;28;20315;-64
2023/07/06 19:04:24;;;;;;;3.03;1.77;;;;;;;25.51;31.00;99880.25;10407369;28;20288;-66
2023/07/06 19:09:25;;;;;;;6.35;1.73;;;;;;;25.40;31.10;99898.63;10404638;28;20259;-65
2023/07/06 19:14:28;;;;;;;1.98;1.70;;;;;;;24.77;31.43;99903.78;10411089;28;20314;-65
2023/07/06 19:19:30;;;;;;;3.85;2.33;;;;;;;25.64;30.75;99890.56;10401450;28;20715;-65
2023/07/06 19:24:32;;;;;;;4.25;1.80;;;;;;;25.18;32.32;99909.13;10403763;28;20224;-65
2023/07/06 19:29:33;;;;;;;2.55;1.75;;;;;;;25.29;32.75;99884.19;10409575;28;20706;-67
2023/07/06 19:34:35;;;;;;;2.92;2.00;;;;;;;24.50;33.84;99893.94;10404862;28;20339;-65
2023/07/06 19:39:37;;;;;;;2.80;2.05;;;;;;;24.89;33.43;99896.88;10408972;28;20237;-65
2023/07/06 19:44:39;;;;;;;2.42;1.92;;;;;;;24.41;32.69;99918.31;10412377;28;20715;-66
2023/07/06 19:49:43;;;;;;;2.75;2.00;;;;;;;24.23;32.33;99929.78;10417304;28;20271;-66
2023/07/06 19:54:48;;;;;;;4.32;2.17;;;;;;;23.44;33.78;99932.56;10406674;28;20323;-65
2023/07/06 19:59:49;;;;;;;3.97;2.20;;;;;;;22.56;35.91;99900.44;10407505;28;20233;-63
2023/07/06 20:04:57;;;;;;;2.92;2.30;;;;;;;23.22;35.81;99928.09;10394000;28;20295;-65
2023/07/06 20:09:59;;;;;;;3.78;2.33;;;;;;;22.50;37.33;99903.13;10409435;28;20236;-67
2023/07/06 20:15:01;;;;;;;2.40;2.03;;;;;;;23.00;36.37;99890.03;10407224;28;20228;-66
2023/07/06 20:20:04;;;;;;;3.65;1.85;;;;;;;21.85;39.08;99879.63;10393499;28;20271;-63
2023/07/06 20:25:06;;;;;;;3.92;2.35;;;;;;;22.57;34.79;99910.22;10399384;28;20604;-65
2023/07/06 20:30:08;;;;;;;2.47;2.28;;;;;;;23.62;34.08;99955.88;10401353;28;20235;-66
2023/07/06 20:35:10;;;;;;;2.70;2.40;;;;;;;22.33;35.10;99970.53;10394018;28;20232;-65
2023/07/06 20:40:12;;;;;;;3.75;2.35;;;;;;;23.22;34.24;99932.75;10398867;28;20311;-64
2023/07/06 20:45:14;;;;;;;3.92;2.20;;;;;;;22.15;34.58;99988.09;10401175;28;20224;-64
2023/07/06 20:50:15;;;;;;;4.18;2.00;;;;;;;21.45;35.54;99930.66;10397840;28;20236;-66
2023/07/06 20:55:17;;;;;;;2.95;1.90;;;;;;;21.69;35.08;99973.94;10407630;28;20256;-66
2023/07/06 21:00:19;;;;;;;3.00;2.30;;;;;;;22.31;35.32;99954.44;10400904;28;20288;-66
2023/07/06 21:05:21;;;;;;;7.38;2.30;;;;;;;22.04;37.95;99976.25;10357235;28;20337;-66
2023/07/06 21:10:24;;;;;;;6.05;2.08;;;;;;;19.82;41.30;99925.06;10360755;28;20248;-66
2023/07/06 21:15:26;;;;;;;4.70;2.22;;;;;;;20.94;39.14;99905.47;10351041;28;20249;-66
2023/07/06 21:20:28;;;;;;;5.65;2.65;;;;;;;19.75;42.04;99870.09;10393039;28;20209;-66
2023/07/06 21:25:30;;;;;;;5.22;2.70;;;;;;;20.99;39.11;99936.28;10400284;28;20237;-66
2023/07/06 21:30:31;;;;;;;5.53;2.33;;;;;;;21.20;41.33;99902.00;10392771;28;20235;-66
2023/07/06 21:35:36;;;;;;;3.92;2.47;;;;;;;20.89;41.70;99906.22;10395338;28;20724;-65
2023/07/06 21:40:38;;;;;;;3.42;2.70;;;;;;;21.05;40.58;99927.13;10397777;28;20209;-66
2023/07/06 21:45:40;;;;;;;4.45;2.45;;;;;;;20.00;41.92;99937.63;10402604;28;20422;-68
2023/07/06 21:50:42;;;;;;;6.03;2.58;;;;;;;18.92;42.86;99934.56;10385386;28;20252;-68
2023/07/06 21:55:43;;;;;;;3.75;2.95;;;;;;;18.44;43.32;99915.56;10395031;28;20232;-68
2023/07/06 22:00:46;;;;;;;5.25;2.97;;;;;;;18.66;42.57;99906.88;10396966;28;20221;-68
2023/07/06 22:05:47;;;;;;;3.38;2.60;;;;;;;18.28;42.55;99948.72;10400080;28;20323;-67
2023/07/06 22:10:49;;;;;;;3.45;2.70;;;;;;;18.18;42.84;99924.09;10400538;28;20236;-67
2023/07/06 22:15:54;;;;;;;3.25;2.63;;;;;;;18.92;41.83;99923.72;10398817;28;20243;-67
2023/07/06 22:20:57;;;;;;;4.25;2.40;;;;;;;18.77;41.77;99991.94;10398850;28;20741;-67
2023/07/06 22:26:00;;;;;;;5.28;2.85;;;;;;;20.37;40.65;99931.78;10397701;28;20240;-68
2023/07/06 22:31:05;;;;;;;6.85;3.05;;;;;;;21.05;39.26;99991.56;10396652;28;20257;-68
2023/07/06 22:36:08;;;;;;;3.40;2.60;;;;;;;19.72;40.62;100041.59;10400486;28;20318;-67
2023/07/06 22:41:10;;;;;;;4.50;3.03;;;;;;;19.07;42.20;99969.38;10396029;28;20236;-67
2023/07/06 22:46:12;;;;;;;4.28;2.78;;;;;;;19.64;40.87;99976.84;10393655;28;20785;-67
2023/07/06 22:51:13;;;;;;;5.63;2.47;;;;;;;18.92;41.45;100048.44;10400382;28;20347;-67
2023/07/06 22:56:15;;;;;;;4.53;3.08;;;;;;;18.30;42.35;100008.91;10396894;28;20235;-67
2023/07/06 23:01:20;;;;;;;4.60;2.78;;;;;;;18.35;42.33;99973.84;10394399;28;20225;-67
2023/07/06 23:06:22;;;;;;;5.43;2.58;;;;;;;18.60;42.69;99905.91;10395985;28;20236;-67
2023/07/06 23:11:25;;;;;;;3.83;2.70;;;;;;;18.30;42.56;100027.06;10401241;28;20228;-67
2023/07/06 23:16:28;;;;;;;3.67;2.70;;;;;;;19.69;40.86;100006.81;10397522;28;20327;-68
2023/07/06 23:21:34;;;;;;;4.03;2.70;;;;;;;18.37;42.68;99984.44;10396968;28;20241;-67
2023/07/06 23:26:37;;;;;;;2.70;2.33;;;;;;;19.73;41.08;99997.13;10394629;28;20286;-67
2023/07/06 23:31:42;;;;;;;3.85;2.88;;;;;;;19.73;41.41;99945.53;10392491;28;20278;-67
2023/07/06 23:36:45;;;;;;;3.63;3.20;;;;;;;18.91;41.55;100039.47;10390509;28;20271;-67
2023/07/06 23:41:47;;;;;;;4.53;3.03;;;;;;;19.56;40.90;99989.72;10398195;28;20781;-67
2023/07/06 23:46:49;;;;;;;5.80;2.60;;;;;;;17.31;43.75;100003.66;10396482;28;20302;-70